Time;durP1;ratioP1;P1;durP2;ratioP2;P2;SDS_P1;SDS_P2;PMS_P1;PMS_P2;Temp;Humidity;BMP_temperature;BMP_pressure;BME280_temperature;BME280_humidity;BME280_pressure;Samples;Min_cycle;Max_cycle;Signal;HPM_P1;HPM_P2
2022/02/01 00:04:02;;;;;;;67.68;24.42;;;;;;;-0.34;100.00;98856.66;5094677;28;20109;-76
2022/02/01 00:07:04;;;;;;;56.83;22.98;;;;;;;-0.39;100.00;98846.38;5098545;28;20439;-76
2022/02/01 00:10:05;;;;;;;62.63;21.63;;;;;;;-0.34;100.00;98851.53;5098588;28;20123;-76
2022/02/01 00:33:45;;;;;;;49.72;20.40;;;;;;;-0.07;100.00;98881.63;5098319;28;20097;-76
2022/02/01 00:36:37;;;;;;;52.67;19.20;;;;;;;-0.03;100.00;98880.81;5083836;28;20055;-76
2022/02/01 00:39:29;;;;;;;55.30;21.38;;;;;;;0.07;100.00;98904.84;5097952;28;20040;-76
2022/02/01 00:42:17;;;;;;;47.78;17.27;;;;;;;0.07;100.00;98923.75;5097801;28;20036;-76
2022/02/01 00:45:03;;;;;;;49.03;18.90;;;;;;;-0.03;100.00;98909.97;5098573;28;20048;-76
2022/02/01 00:47:47;;;;;;;46.17;17.73;;;;;;;0.11;100.00;98917.75;5097906;28;20075;-76
2022/02/01 00:50:33;;;;;;;50.75;19.25;;;;;;;0.02;100.00;98919.41;5098572;28;20051;-76
2022/02/01 00:53:21;;;;;;;52.85;20.42;;;;;;;0.05;100.00;98919.44;5098375;28;20052;-76
2022/02/01 00:56:06;;;;;;;48.65;18.95;;;;;;;0.05;100.00;98928.00;5097723;28;20098;-76
2022/02/01 00:58:51;;;;;;;52.58;18.48;;;;;;;0.06;100.00;98924.56;5097640;28;20040;-76
2022/02/01 01:01:36;;;;;;;52.78;19.33;;;;;;;0.09;100.00;98928.88;5097999;28;20059;-76
2022/02/01 01:04:21;;;;;;;55.25;19.17;;;;;;;0.14;100.00;98940.91;5083162;28;20047;-76
2022/02/01 01:07:05;;;;;;;48.13;16.55;;;;;;;-0.03;100.00;98929.72;5097353;28;20348;-76
2022/02/01 01:09:50;;;;;;;50.45;18.67;;;;;;;-0.04;100.00;98936.56;5098200;28;20044;-76
2022/02/01 01:12:44;;;;;;;44.38;20.15;;;;;;;0.06;100.00;98932.28;5098016;28;20052;-76
2022/02/01 01:15:31;;;;;;;38.80;17.75;;;;;;;0.01;100.00;98928.00;5082823;28;20398;-76
2022/02/01 01:45:30;;;;;;;42.95;18.77;;;;;;;0.23;100.00;98945.25;5097561;28;19935;-76
2022/02/01 01:54:22;;;;;;;41.00;16.65;;;;;;;0.15;100.00;98931.47;5096529;28;20102;-76
2022/02/01 01:57:07;;;;;;;40.90;17.95;;;;;;;0.09;100.00;98950.34;5096345;28;20330;-76
2022/02/01 01:59:51;;;;;;;41.08;18.55;;;;;;;0.15;100.00;98949.50;5096489;28;20040;-76
2022/02/01 02:02:36;;;;;;;47.58;17.92;;;;;;;-0.01;100.00;98957.16;5096141;28;20440;-76
2022/02/01 02:05:21;;;;;;;41.83;18.95;;;;;;;0.04;100.00;98971.81;5096312;28;20040;-76
2022/02/01 02:08:06;;;;;;;43.53;19.33;;;;;;;0.06;100.00;98972.66;5096273;28;20177;-76
2022/02/01 02:10:57;;;;;;;41.28;17.60;;;;;;;0.04;100.00;98958.91;5096363;28;20040;-76
2022/02/01 02:16:56;;;;;;;48.70;17.45;;;;;;;-0.04;100.00;98967.44;5096103;28;20337;-75
2022/02/01 02:19:41;;;;;;;37.92;16.80;;;;;;;0.01;100.00;98966.63;5096069;28;20348;-76
2022/02/01 02:22:25;;;;;;;33.28;15.25;;;;;;;0.01;100.00;98972.63;5095905;28;20043;-76
2022/02/01 02:25:09;;;;;;;36.05;16.45;;;;;;;0.04;100.00;98971.81;5095961;28;20044;-76
2022/02/01 02:27:55;;;;;;;46.58;17.50;;;;;;;0.01;100.00;98957.19;5080825;28;20067;-76
2022/02/01 02:30:40;;;;;;;39.90;16.83;;;;;;;0.10;100.00;98964.06;5095895;28;20036;-76
2022/02/01 02:33:25;;;;;;;39.53;17.17;;;;;;;0.09;100.00;98980.38;5096553;28;20093;-76
2022/02/01 02:36:17;;;;;;;41.35;16.50;;;;;;;0.14;100.00;98989.00;5081418;28;20048;-76
2022/02/01 02:39:09;;;;;;;43.35;16.15;;;;;;;-0.09;100.00;98961.44;5096411;28;20040;-76
2022/02/01 02:45:09;;;;;;;38.85;14.52;;;;;;;-0.13;100.00;98987.16;5096392;28;20055;-76
2022/02/01 02:47:54;;;;;;;31.65;14.40;;;;;;;0.10;100.00;98989.81;5096286;28;20036;-76
2022/02/01 02:50:39;;;;;;;38.08;14.73;;;;;;;0.10;100.00;98990.72;5095578;28;20048;-76
2022/02/01 02:53:23;;;;;;;39.60;14.48;;;;;;;0.02;100.00;98979.50;5081229;28;20040;-76
2022/02/01 02:56:08;;;;;;;31.10;15.32;;;;;;;-0.05;100.00;98988.06;5081238;28;20089;-76
2022/02/01 02:58:52;;;;;;;29.48;13.60;;;;;;;0.03;100.00;98991.50;5095643;28;20096;-76
2022/02/01 03:01:36;;;;;;;40.42;14.85;;;;;;;0.06;100.00;98988.09;5095164;28;20456;-76
2022/02/01 03:04:23;;;;;;;36.30;13.93;;;;;;;0.07;100.00;98987.25;5081091;28;20121;-76
2022/02/01 03:07:08;;;;;;;31.13;12.40;;;;;;;0.11;100.00;98987.25;5095387;28;20040;-76
2022/02/01 03:09:52;;;;;;;35.55;15.52;;;;;;;0.11;100.00;98994.13;5081199;28;20126;-76
2022/02/01 03:13:06;;;;;;;30.08;13.60;;;;;;;0.16;100.00;98998.47;5081244;28;20039;-76
2022/02/01 03:21:58;;;;;;;37.53;14.15;;;;;;;0.19;100.00;98976.97;5095750;28;20032;-76
2022/02/01 03:24:42;;;;;;;35.05;13.40;;;;;;;0.11;100.00;98979.53;5095941;28;20044;-76
2022/02/01 03:27:27;;;;;;;36.00;14.45;;;;;;;0.16;100.00;98971.81;5095996;28;20078;-76
2022/02/01 03:30:12;;;;;;;28.77;13.15;;;;;;;0.14;100.00;98979.56;5095045;28;20432;-76
2022/02/01 03:32:56;;;;;;;37.70;14.30;;;;;;;0.13;100.00;98988.16;5095847;28;20347;-76
2022/02/01 03:35:41;;;;;;;33.67;13.77;;;;;;;0.26;100.00;98988.16;5095212;28;20036;-76
2022/02/01 03:38:25;;;;;;;36.30;15.27;;;;;;;0.09;100.00;98996.69;5096147;28;20115;-76
2022/02/01 03:41:10;;;;;;;36.00;15.80;;;;;;;0.14;100.00;99001.88;5099809;28;20036;-76
2022/02/01 03:43:54;;;;;;;32.17;14.18;;;;;;;0.15;100.00;98991.56;5084781;28;20036;-76
2022/02/01 03:46:49;;;;;;;31.65;13.18;;;;;;;0.31;100.00;99005.38;5084799;28;20424;-76
2022/02/01 03:49:36;;;;;;;33.75;14.20;;;;;;;0.37;100.00;98996.81;5099659;28;20036;-76
2022/02/01 03:52:21;;;;;;;29.08;13.75;;;;;;;0.29;100.00;98978.72;5099563;28;20096;-76
2022/02/01 03:55:05;;;;;;;38.15;14.80;;;;;;;0.35;100.00;98985.63;5099544;28;20437;-76
2022/02/01 03:57:50;;;;;;;33.83;14.23;;;;;;;0.30;100.00;98974.47;5084558;28;20110;-76
2022/02/01 04:00:34;;;;;;;32.63;14.27;;;;;;;0.15;100.00;98981.25;5098752;28;20059;-76
2022/02/01 04:03:19;;;;;;;34.95;13.82;;;;;;;0.15;100.00;98986.41;5084259;28;20058;-76
2022/02/01 04:06:03;;;;;;;31.13;13.65;;;;;;;0.18;100.00;98985.56;5098562;28;20056;-76
2022/02/01 04:08:48;;;;;;;30.33;13.18;;;;;;;0.05;100.00;98986.38;5099382;28;20036;-76
2022/02/01 04:11:33;;;;;;;33.60;13.95;;;;;;;-0.07;100.00;98984.59;5098652;28;20480;-76
2022/02/01 04:14:24;;;;;;;32.20;14.93;;;;;;;-0.18;100.00;98974.25;5099048;28;20040;-76
2022/02/01 04:17:12;;;;;;;33.05;13.82;;;;;;;-0.04;100.00;98995.78;5084056;28;20040;-76
2022/02/01 04:19:56;;;;;;;25.02;13.88;;;;;;;-0.09;100.00;98987.19;5098248;28;20051;-76
2022/02/01 04:22:41;;;;;;;34.42;14.43;;;;;;;-0.11;100.00;98999.19;5083872;28;20044;-76
2022/02/01 04:25:25;;;;;;;36.10;15.30;;;;;;;-0.22;100.00;99003.44;5098850;28;20044;-76
2022/02/01 04:28:10;;;;;;;30.02;14.07;;;;;;;-0.20;100.00;99003.41;5083853;28;20040;-76
2022/02/01 04:30:54;;;;;;;33.85;14.32;;;;;;;-0.29;100.00;98994.81;5098175;28;20040;-76
2022/02/01 04:33:39;;;;;;;29.20;13.18;;;;;;;-0.26;100.00;99011.97;5099233;28;20035;-76
2022/02/01 04:36:23;;;;;;;33.20;14.30;;;;;;;-0.29;100.00;99014.53;5098739;28;20044;-76
2022/02/01 04:39:08;;;;;;;29.73;14.48;;;;;;;-0.26;100.00;99023.13;5098660;28;20044;-76
2022/02/01 04:41:53;;;;;;;30.88;14.05;;;;;;;-0.24;100.00;99020.56;5097744;28;20047;-76
2022/02/01 04:44:37;;;;;;;29.70;14.93;;;;;;;-0.29;100.00;99012.81;5098681;28;20044;-76
2022/02/01 04:47:28;;;;;;;34.65;17.60;;;;;;;-0.33;100.00;99023.94;5097737;28;20055;-76
2022/02/01 04:50:19;;;;;;;35.78;17.50;;;;;;;-0.41;100.00;99017.03;5097929;28;20044;-76
2022/02/01 04:53:03;;;;;;;30.80;14.77;;;;;;;-0.38;100.00;99029.91;5098425;28;20069;-76
2022/02/01 04:55:57;;;;;;;35.28;14.68;;;;;;;-0.47;100.00;99034.13;5097842;28;20424;-76
2022/02/01 04:58:41;;;;;;;33.10;14.25;;;;;;;-0.54;100.00;99042.66;5083412;28;20044;-76
2022/02/01 05:01:36;;;;;;;34.45;14.75;;;;;;;-0.57;100.00;99052.94;5083039;28;20056;-76
2022/02/01 05:04:21;;;;;;;39.67;15.00;;;;;;;-0.61;100.00;99050.34;5098118;28;20044;-76
2022/02/01 05:07:06;;;;;;;31.30;15.00;;;;;;;-0.62;100.00;99061.47;5097419;28;20090;-76
2022/02/01 05:09:51;;;;;;;39.60;20.38;;;;;;;-0.79;100.00;99058.75;5097484;28;20070;-76
2022/02/01 05:12:37;;;;;;;43.58;22.20;;;;;;;-0.70;100.00;99053.69;5097405;28;20040;-76
2022/02/01 05:15:22;;;;;;;37.15;18.42;;;;;;;-0.66;100.00;99060.56;5097237;28;20039;-76
2022/02/01 05:18:13;;;;;;;32.90;16.60;;;;;;;-0.74;100.00;99057.09;5097208;28;20432;-76
2022/02/01 05:21:07;;;;;;;39.60;18.40;;;;;;;-0.76;100.00;99043.34;5097783;28;20433;-75
2022/02/01 05:23:53;;;;;;;46.90;21.95;;;;;;;-0.85;100.00;99038.13;5097828;28;20105;-76
2022/02/01 05:26:38;;;;;;;36.33;18.23;;;;;;;-0.77;100.00;99045.06;5097048;28;20044;-76
2022/02/01 05:29:23;;;;;;;33.45;16.00;;;;;;;-0.80;100.00;99051.91;5097685;28;20036;-76
2022/02/01 05:32:27;;;;;;;29.73;14.30;;;;;;;-0.75;100.00;99055.34;5096962;28;20348;-76
2022/02/01 05:35:12;;;;;;;33.20;13.73;;;;;;;-0.78;100.00;99042.47;5082578;28;20123;-76
2022/02/01 05:37:57;;;;;;;31.55;14.77;;;;;;;-0.76;100.00;99040.78;5097671;28;20421;-76
2022/02/01 05:40:41;;;;;;;36.10;13.85;;;;;;;-0.72;100.00;99047.66;5096754;28;20044;-76
2022/02/01 05:43:27;;;;;;;28.42;14.35;;;;;;;-0.76;100.00;99040.78;5097456;28;20451;-76
2022/02/01 05:46:12;;;;;;;29.77;14.40;;;;;;;-0.83;100.00;99031.31;5081890;28;20044;-76
2022/02/01 05:48:56;;;;;;;26.75;13.15;;;;;;;-0.85;100.00;99026.13;5081461;28;20039;-76
2022/02/01 05:51:41;;;;;;;26.95;13.30;;;;;;;-0.91;100.00;99020.97;5095539;28;20036;-76
2022/02/01 05:54:27;;;;;;;35.03;13.23;;;;;;;-0.78;100.00;99042.47;5080503;28;20036;-76
2022/02/01 05:57:12;;;;;;;26.45;14.23;;;;;;;-0.79;100.00;99046.75;5095436;28;20048;-76
2022/02/01 05:59:56;;;;;;;36.33;14.27;;;;;;;-0.84;100.00;99042.44;5095389;28;20044;-76
2022/02/01 06:02:40;;;;;;;32.88;14.88;;;;;;;-0.86;100.00;99042.41;5093587;28;20476;-76
2022/02/01 06:05:25;;;;;;;31.48;13.52;;;;;;;-0.82;100.00;99058.72;5096192;28;20035;-76
2022/02/01 06:08:11;;;;;;;29.00;14.20;;;;;;;-0.66;100.00;99058.00;5096304;28;20483;-76
2022/02/01 06:10:56;;;;;;;40.80;18.27;;;;;;;-0.77;100.00;99060.50;5095118;28;20036;-76
2022/02/01 06:13:40;;;;;;;39.95;18.15;;;;;;;-0.66;100.00;99064.88;5095078;28;20044;-76
2022/02/01 06:16:24;;;;;;;230.73;90.30;;;;;;;-0.75;100.00;99052.78;5095564;28;20325;-76
2022/02/01 06:19:09;;;;;;;256.60;108.05;;;;;;;-0.62;100.00;99076.91;5095957;28;20329;-76
2022/02/01 06:21:54;;;;;;;219.98;109.50;;;;;;;-0.60;100.00;99085.50;5095363;28;20036;-75
2022/02/01 06:24:38;;;;;;;121.18;66.90;;;;;;;-0.63;100.00;99088.91;5095829;28;20032;-76
2022/02/01 06:27:23;;;;;;;53.22;27.33;;;;;;;-0.48;100.00;99098.47;5081268;28;20055;-79
2022/02/01 06:30:09;;;;;;;51.67;24.95;;;;;;;-0.51;100.00;99096.72;5097129;28;20036;-73
2022/02/01 06:32:54;;;;;;;44.92;21.48;;;;;;;-0.47;100.00;99088.16;5114159;28;20031;-73
2022/02/01 06:35:38;;;;;;;42.38;17.42;;;;;;;-0.43;100.00;99099.34;5115350;28;20032;-73
2022/02/01 06:38:23;;;;;;;48.13;21.58;;;;;;;-0.47;100.00;99101.03;5114875;28;20046;-73
2022/02/01 06:41:07;;;;;;;45.80;23.17;;;;;;;-0.38;100.00;99115.69;5100646;28;20042;-73
2022/02/01 06:43:53;;;;;;;65.00;31.10;;;;;;;-0.36;100.00;99119.13;5100429;28;20104;-73
2022/02/01 06:46:37;;;;;;;40.08;20.67;;;;;;;-0.20;100.00;99117.53;5116411;28;20386;-73
2022/02/01 06:49:22;;;;;;;36.05;17.88;;;;;;;-0.18;100.00;99113.28;5114826;28;20078;-73
2022/02/01 06:52:06;;;;;;;40.67;16.20;;;;;;;-0.07;100.00;99100.47;5115483;28;20059;-73
2022/02/01 06:54:51;;;;;;;32.30;14.85;;;;;;;-0.12;100.00;99103.00;5114669;28;20031;-73
2022/02/01 06:57:38;;;;;;;26.67;11.88;;;;;;;-0.05;100.00;99104.78;5113874;28;20039;-73
2022/02/01 07:00:22;;;;;;;29.98;12.15;;;;;;;-0.06;100.00;99108.22;5114544;28;20043;-73
2022/02/01 07:03:07;;;;;;;36.22;14.25;;;;;;;-0.06;100.00;99108.22;5113765;28;20043;-73
2022/02/01 07:05:51;;;;;;;33.83;13.00;;;;;;;-0.05;100.00;99112.50;5114562;28;20039;-73
2022/02/01 07:08:35;;;;;;;38.50;16.73;;;;;;;-0.10;100.00;99103.00;5114541;28;20114;-73
2022/02/01 07:11:21;;;;;;;39.53;15.15;;;;;;;0.04;100.00;99116.00;5114091;28;20036;-73
2022/02/01 07:14:06;;;;;;;30.27;11.95;;;;;;;0.05;100.00;99102.25;5114457;28;20043;-73
2022/02/01 07:16:50;;;;;;;28.95;12.23;;;;;;;0.15;100.00;99096.31;5116839;28;20364;-73
2022/02/01 07:19:34;;;;;;;30.58;11.68;;;;;;;0.28;100.00;99097.22;5116087;28;20096;-73
2022/02/01 07:22:19;;;;;;;31.10;12.80;;;;;;;0.30;100.00;99091.25;5115481;28;20039;-73
2022/02/01 07:25:13;;;;;;;45.97;16.52;;;;;;;0.36;100.00;99083.53;5116513;28;20118;-73
2022/02/01 07:28:03;;;;;;;33.28;14.55;;;;;;;0.39;100.00;99080.09;5116719;28;20036;-73
2022/02/01 07:30:48;;;;;;;43.25;18.88;;;;;;;0.36;100.00;99093.84;5116451;28;20043;-73
2022/02/01 07:33:33;;;;;;;102.38;40.42;;;;;;;0.41;100.00;99107.59;5115716;28;20055;-73
2022/02/01 07:36:17;;;;;;;54.47;21.98;;;;;;;0.51;100.00;99095.63;5116031;28;20046;-73
2022/02/01 07:39:02;;;;;;;43.53;19.13;;;;;;;0.57;100.00;99087.06;5116466;28;20048;-73
2022/02/01 07:41:46;;;;;;;45.42;17.02;;;;;;;0.62;100.00;99091.38;5116126;28;20345;-73
2022/02/01 07:44:33;;;;;;;42.90;18.20;;;;;;;0.73;100.00;99093.97;5101238;28;20035;-73
2022/02/01 07:47:21;;;;;;;34.67;14.98;;;;;;;0.64;100.00;99088.78;5115362;28;20044;-73
2022/02/01 07:50:07;;;;;;;39.65;18.17;;;;;;;0.73;100.00;99082.81;5100963;28;20039;-73
2022/02/01 07:52:52;;;;;;;29.90;14.13;;;;;;;0.72;100.00;99094.00;5101073;28;20146;-73
2022/02/01 07:55:38;;;;;;;51.00;20.73;;;;;;;0.69;100.00;99087.09;5101095;28;20040;-73
2022/02/01 07:58:22;;;;;;;41.50;18.98;;;;;;;0.64;100.00;99088.78;5101156;28;20043;-73
2022/02/01 08:01:07;;;;;;;46.75;24.75;;;;;;;0.69;100.00;99100.00;5115931;28;20101;-74
2022/02/01 08:03:51;;;;;;;78.28;41.17;;;;;;;0.63;100.00;99105.97;5116552;28;20043;-73
2022/02/01 08:06:36;;;;;;;65.43;34.92;;;;;;;0.68;100.00;99096.56;5101294;28;20048;-73
2022/02/01 08:09:23;;;;;;;37.38;21.20;;;;;;;0.64;100.00;99097.38;5115892;28;20320;-74
2022/02/01 08:12:39;;;;;;;31.45;14.65;;;;;;;0.65;100.00;99095.66;5115790;28;20043;-73
2022/02/01 08:18:48;;;;;;;24.75;9.02;;;;;;;0.68;100.00;99096.56;5115705;28;20040;-73
2022/02/01 08:21:42;;;;;;;35.75;12.75;;;;;;;0.72;100.00;99101.72;5115676;28;20035;-73
2022/02/01 08:24:26;;;;;;;34.30;14.38;;;;;;;0.77;100.00;99090.53;5115208;28;20043;-73
2022/02/01 08:27:10;;;;;;;35.78;13.68;;;;;;;0.79;100.00;99088.00;5118854;28;20035;-73
2022/02/01 08:29:56;;;;;;;30.02;12.95;;;;;;;0.74;100.00;99085.38;5104257;28;20055;-73
2022/02/01 08:32:40;;;;;;;34.42;15.25;;;;;;;0.83;100.00;99079.41;5118808;28;20047;-73
2022/02/01 08:35:25;;;;;;;36.33;13.13;;;;;;;0.65;100.00;99049.25;5119743;28;20035;-73
2022/02/01 08:38:09;;;;;;;33.30;12.93;;;;;;;0.88;100.00;99075.13;5119659;28;20039;-73
2022/02/01 08:40:53;;;;;;;37.53;14.45;;;;;;;0.87;100.00;99068.22;5118362;28;20462;-73
2022/02/01 08:43:38;;;;;;;28.33;11.57;;;;;;;0.85;100.00;99068.25;5119515;28;20118;-73
2022/02/01 08:46:22;;;;;;;28.48;12.02;;;;;;;0.84;100.00;99075.97;5119338;28;20473;-73
2022/02/01 08:49:07;;;;;;;26.50;11.50;;;;;;;0.87;100.00;99076.81;5118192;28;20052;-73
2022/02/01 08:52:01;;;;;;;35.55;13.50;;;;;;;0.83;100.00;99067.38;5118062;28;20039;-73
2022/02/01 08:54:50;;;;;;;28.50;11.43;;;;;;;0.89;100.00;99077.69;5118206;28;20075;-73
2022/02/01 08:57:36;;;;;;;43.17;14.63;;;;;;;0.89;100.00;99080.28;5118754;28;20321;-73
2022/02/01 09:00:20;;;;;;;39.60;14.65;;;;;;;0.87;100.00;99074.25;5103618;28;20059;-73
2022/02/01 09:03:05;;;;;;;28.92;11.90;;;;;;;0.76;100.00;99068.22;5117978;28;20112;-73
2022/02/01 09:05:50;;;;;;;31.52;10.80;;;;;;;0.72;100.00;99061.34;5117969;28;20043;-73
2022/02/01 09:08:34;;;;;;;26.20;12.38;;;;;;;0.72;100.00;99060.47;5118914;28;20035;-73
2022/02/01 09:11:18;;;;;;;25.52;10.20;;;;;;;0.78;100.00;99056.19;5118559;28;20096;-74
2022/02/01 09:14:03;;;;;;;27.48;11.40;;;;;;;0.89;100.00;99069.97;5118049;28;20043;-73
2022/02/01 09:16:47;;;;;;;54.78;23.70;;;;;;;0.83;100.00;99048.47;5117744;28;20066;-73
2022/02/01 09:19:32;;;;;;;66.47;31.55;;;;;;;0.87;100.00;99047.59;5117817;28;20054;-74
2022/02/01 09:22:17;;;;;;;57.67;25.80;;;;;;;0.84;100.00;99042.44;5103484;28;20039;-74
2022/02/01 09:25:01;;;;;;;47.20;24.77;;;;;;;0.86;100.00;99039.00;5117491;28;20352;-73
2022/02/01 09:27:48;;;;;;;104.15;52.15;;;;;;;0.90;100.00;99037.28;5103237;28;20352;-74
2022/02/01 09:30:34;;;;;;;101.78;48.15;;;;;;;0.90;100.00;99029.56;5103167;28;20345;-74
2022/02/01 09:33:18;;;;;;;95.68;45.60;;;;;;;1.01;100.00;99039.88;5118185;28;20043;-74
2022/02/01 09:36:04;;;;;;;126.97;60.38;;;;;;;1.10;100.00;99033.00;5118432;28;20039;-74
2022/02/01 09:38:52;;;;;;;126.40;64.40;;;;;;;1.05;100.00;99026.16;5118299;28;20049;-74
2022/02/01 09:41:38;;;;;;;58.33;35.35;;;;;;;1.19;100.00;99032.16;5117665;28;20039;-75
2022/02/01 09:44:22;;;;;;;51.17;30.40;;;;;;;1.21;100.00;99032.19;5088295;28;20128;-75
2022/02/01 09:47:07;;;;;;;39.05;18.42;;;;;;;1.15;100.00;99027.88;5118465;28;20040;-75
2022/02/01 09:49:51;;;;;;;36.90;18.80;;;;;;;1.23;100.00;99018.41;5117387;28;20031;-75
2022/02/01 09:52:38;;;;;;;30.83;16.20;;;;;;;1.27;100.00;99008.94;5117100;28;20047;-75
2022/02/01 09:55:22;;;;;;;45.42;26.90;;;;;;;1.24;100.00;99017.56;5117307;28;20126;-75
2022/02/01 09:58:10;;;;;;;39.22;24.00;;;;;;;1.28;100.00;99008.94;5117980;28;20044;-75
2022/02/01 10:00:55;;;;;;;47.25;29.92;;;;;;;1.26;100.00;99009.81;5117626;28;20051;-75
2022/02/01 10:03:39;;;;;;;63.13;39.42;;;;;;;1.26;100.00;99000.34;5117577;28;20039;-75
2022/02/01 10:06:32;;;;;;;66.68;40.78;;;;;;;1.29;100.00;99005.50;5118021;28;20131;-75
2022/02/01 10:09:16;;;;;;;57.28;28.48;;;;;;;1.36;100.00;99008.94;5117315;28;20040;-75
2022/02/01 10:12:01;;;;;;;55.30;32.30;;;;;;;1.29;100.00;99013.25;5102940;28;20043;-75
2022/02/01 10:14:57;;;;;;;39.78;20.52;;;;;;;1.36;100.00;98998.63;5116652;28;20040;-75
2022/02/01 10:17:47;;;;;;;40.00;18.42;;;;;;;1.35;100.00;99002.06;5116338;28;20548;-75
2022/02/01 10:20:35;;;;;;;30.77;13.23;;;;;;;1.38;100.00;98996.91;5116764;28;20051;-75
2022/02/01 10:23:23;;;;;;;32.58;13.40;;;;;;;1.42;100.00;99000.34;5117720;28;20043;-75
2022/02/01 10:26:14;;;;;;;28.33;12.65;;;;;;;1.53;100.00;98993.47;5116739;28;20043;-75
2022/02/01 10:29:42;;;;;;;19.25;10.25;;;;;;;1.45;100.00;98983.13;5116493;28;20051;-75
2022/02/01 10:32:19;;;;;;;22.88;10.88;;;;;;;1.52;100.00;98984.81;5117377;28;20055;-75
2022/02/01 10:38:17;;;;;;;17.08;7.57;;;;;;;1.51;100.00;98959.88;5116643;28;20035;-75
2022/02/01 10:41:03;;;;;;;25.42;8.70;;;;;;;1.55;100.00;98956.44;5116904;28;20047;-75
2022/02/01 10:43:52;;;;;;;26.80;8.43;;;;;;;1.59;100.00;98957.28;5115460;28;20050;-75
2022/02/01 10:46:53;;;;;;;29.60;10.65;;;;;;;1.64;100.00;98955.56;5114979;28;20036;-75
2022/02/01 10:49:38;;;;;;;21.65;9.20;;;;;;;1.56;100.00;98954.69;5114694;28;20124;-75
2022/02/01 10:52:22;;;;;;;24.83;8.73;;;;;;;1.52;100.00;98940.94;5114628;28;20224;-74
2022/02/01 10:55:08;;;;;;;21.20;9.60;;;;;;;1.66;100.00;98942.63;5114483;28;20632;-75
2022/02/01 10:57:53;;;;;;;22.02;9.48;;;;;;;1.84;100.00;98945.16;5114127;28;20044;-75
2022/02/01 11:00:38;;;;;;;25.80;9.23;;;;;;;1.75;100.00;98916.78;5116344;28;20043;-75
2022/02/01 11:03:23;;;;;;;22.00;8.23;;;;;;;1.86;100.00;98928.81;5101514;28;20048;-75
2022/02/01 11:06:09;;;;;;;22.73;9.40;;;;;;;1.83;100.00;98905.56;5116606;28;20035;-75
2022/02/01 11:08:55;;;;;;;24.85;9.75;;;;;;;1.79;100.00;98908.19;5116000;28;20044;-75
2022/02/01 11:11:52;;;;;;;34.85;12.75;;;;;;;1.80;100.00;98900.41;5087389;28;20047;-75
2022/02/01 11:14:47;;;;;;;27.63;11.80;;;;;;;1.88;100.00;98892.63;5115656;28;20040;-75
2022/02/01 11:17:40;;;;;;;29.35;13.90;;;;;;;1.91;100.00;98890.03;5115802;28;20047;-75
2022/02/01 11:20:29;;;;;;;32.92;12.27;;;;;;;1.94;100.00;98894.34;5116957;28;20108;-75
2022/02/01 11:23:22;;;;;;;26.80;10.52;;;;;;;1.93;100.00;98888.31;5115600;28;20035;-75
2022/02/01 11:26:49;;;;;;;32.60;12.43;;;;;;;1.82;100.00;98890.06;5115969;28;20035;-75
2022/02/01 11:29:51;;;;;;;25.80;10.43;;;;;;;1.67;100.00;98885.84;5116881;28;20108;-75
2022/02/01 11:32:38;;;;;;;30.30;11.02;;;;;;;1.74;100.00;98887.53;5115609;28;20039;-75
2022/02/01 11:35:26;;;;;;;27.50;11.25;;;;;;;1.65;100.00;98877.25;5116466;28;20035;-75
2022/02/01 11:38:20;;;;;;;49.72;21.67;;;;;;;1.64;100.00;98868.63;5115636;28;20035;-75
2022/02/01 11:41:07;;;;;;;112.07;45.08;;;;;;;1.74;100.00;98868.59;5101863;28;20039;-75
2022/02/01 11:43:51;;;;;;;61.90;24.92;;;;;;;1.58;100.00;98857.47;5116221;28;20126;-75
2022/02/01 11:46:36;;;;;;;41.63;16.38;;;;;;;1.70;100.00;98861.75;5115783;28;20036;-75
2022/02/01 11:49:23;;;;;;;104.13;44.00;;;;;;;1.73;100.00;98852.25;5086982;28;20055;-75
2022/02/01 11:52:15;;;;;;;63.15;28.05;;;;;;;1.82;100.00;98843.59;5115748;28;20043;-75
2022/02/01 11:55:04;;;;;;;70.00;28.95;;;;;;;1.76;100.00;98851.41;5116177;28;20348;-75
2022/02/01 11:57:51;;;;;;;35.42;17.05;;;;;;;1.72;100.00;98835.03;5116111;28;20094;-75
2022/02/01 12:00:40;;;;;;;30.05;15.00;;;;;;;1.68;100.00;98846.25;5116094;28;20405;-76
2022/02/01 12:03:38;;;;;;;33.97;18.30;;;;;;;1.69;100.00;98842.81;5119227;28;20047;-75
2022/02/01 12:06:22;;;;;;;21.38;12.50;;;;;;;1.60;100.00;98837.69;5119294;28;20043;-75
2022/02/01 12:09:19;;;;;;;27.08;12.80;;;;;;;1.63;100.00;98843.69;5119745;28;20047;-75
2022/02/01 12:12:03;;;;;;;23.83;13.38;;;;;;;1.61;100.00;98841.97;5119148;28;20051;-75
2022/02/01 12:14:55;;;;;;;17.90;10.30;;;;;;;1.61;100.00;98826.50;5119885;28;20047;-75
2022/02/01 12:18:21;;;;;;;21.55;11.23;;;;;;;1.69;100.00;98831.59;5120290;28;20067;-75
2022/02/01 12:21:24;;;;;;;23.20;12.07;;;;;;;1.70;100.00;98826.47;5097835;28;20060;-75
2022/02/01 12:24:08;;;;;;;16.92;10.20;;;;;;;1.58;100.00;98818.75;5104447;28;20351;-76
2022/02/01 12:26:53;;;;;;;20.98;10.20;;;;;;;1.57;100.00;98830.81;5119507;28;20040;-76
2022/02/01 12:29:37;;;;;;;23.50;8.57;;;;;;;1.61;100.00;98829.06;5120130;28;20043;-76
2022/02/01 12:32:22;;;;;;;16.33;8.27;;;;;;;1.64;100.00;98831.66;5118756;28;20401;-76
2022/02/01 12:35:06;;;;;;;18.52;8.68;;;;;;;1.63;100.00;98842.84;5118864;28;20036;-75
2022/02/01 12:38:02;;;;;;;15.00;7.32;;;;;;;1.69;100.00;98823.88;5104454;28;20036;-76
2022/02/01 12:41:00;;;;;;;21.38;9.80;;;;;;;1.62;100.00;98830.78;5118494;28;20039;-76
2022/02/01 12:47:07;;;;;;;10.60;6.22;;;;;;;1.88;100.00;98820.31;5096061;28;20051;-75
2022/02/01 12:49:53;;;;;;;13.40;6.13;;;;;;;1.73;100.00;98829.03;5118787;28;20046;-75
2022/02/01 12:52:38;;;;;;;15.18;6.82;;;;;;;1.75;100.00;98816.94;5119067;28;20071;-75
2022/02/01 12:55:25;;;;;;;17.65;9.27;;;;;;;1.75;100.00;98824.69;5118162;28;20113;-75
2022/02/01 12:58:14;;;;;;;24.88;10.63;;;;;;;1.73;100.00;98834.19;5117952;28;20052;-75
2022/02/01 13:00:59;;;;;;;18.10;8.88;;;;;;;1.78;100.00;98827.25;5116855;28;20052;-75
2022/02/01 13:03:44;;;;;;;17.05;7.78;;;;;;;1.84;100.00;98806.56;5116161;28;20532;-75
2022/02/01 13:06:34;;;;;;;18.98;8.80;;;;;;;1.83;100.00;98810.03;5101982;28;20328;-75
2022/02/01 13:21:18;;;;;;;13.38;5.85;;;;;;;2.04;100.00;98790.94;5116863;28;20074;-75
2022/02/01 13:24:04;;;;;;;16.77;8.68;;;;;;;2.23;100.00;98794.25;5117197;28;20043;-75
2022/02/01 13:26:48;;;;;;;13.13;5.50;;;;;;;2.20;100.00;98801.19;5117617;28;20051;-75
2022/02/01 13:29:32;;;;;;;17.95;6.82;;;;;;;2.08;100.00;98796.94;5117287;28;20456;-75
2022/02/01 13:32:17;;;;;;;18.55;7.82;;;;;;;1.94;100.00;98783.28;5118156;28;20047;-75
2022/02/01 13:35:07;;;;;;;40.25;19.92;;;;;;;1.85;100.00;98782.47;5117230;28;20486;-75
2022/02/01 13:37:51;;;;;;;39.17;17.08;;;;;;;1.82;100.00;98774.75;5118751;28;20044;-75
2022/02/01 13:40:36;;;;;;;22.88;12.55;;;;;;;1.90;100.00;98753.19;5117925;28;20051;-75
2022/02/01 13:43:24;;;;;;;24.27;12.38;;;;;;;1.98;100.00;98764.31;5117290;28;20043;-75
2022/02/01 13:46:18;;;;;;;19.25;9.32;;;;;;;2.08;100.00;98772.00;5117641;28;20427;-75
2022/02/01 13:49:10;;;;;;;20.17;8.75;;;;;;;2.04;100.00;98759.94;5117494;28;20043;-75
2022/02/01 13:51:55;;;;;;;20.02;8.20;;;;;;;2.05;100.00;98756.50;5117895;28;20043;-75
2022/02/01 13:54:41;;;;;;;37.40;13.63;;;;;;;2.02;100.00;98756.53;5118408;28;20067;-76
2022/02/01 13:57:32;;;;;;;84.85;34.17;;;;;;;1.96;100.00;98751.41;5116938;28;20047;-76
2022/02/01 14:00:17;;;;;;;62.33;23.30;;;;;;;2.02;100.00;98753.09;5117727;28;20420;-76
2022/02/01 14:06:24;;;;;;;28.23;12.95;;;;;;;1.93;100.00;98735.94;5116866;28;20069;-76
2022/02/01 14:09:22;;;;;;;25.35;11.07;;;;;;;1.83;100.00;98732.56;5116926;28;20044;-76
2022/02/01 14:35:14;;;;;;;25.27;10.98;;;;;;;1.66;100.00;98694.81;5116964;28;20100;-76
2022/02/01 14:38:32;;;;;;;38.50;17.55;;;;;;;1.65;100.00;98688.78;5116261;28;20043;-76
2022/02/01 14:47:03;;;;;;;47.03;18.35;;;;;;;1.48;100.00;98691.50;5117028;28;20036;-76
2022/02/01 14:49:49;;;;;;;38.42;15.02;;;;;;;1.51;100.00;98682.88;5102032;28;20032;-76